sensor_id;sensor_type;location;lat;lon;timestamp;pressure;altitude;pressure_sealevel;temperature;humidity
61359;BME280;47228;46.762;23.598;2023-04-06T00:02:08;96908.63;;;1.37;64.57
61359;BME280;47228;46.762;23.598;2023-04-06T00:04:36;96909.18;;;1.34;64.72
61359;BME280;47228;46.762;23.598;2023-04-06T00:07:04;96904.42;;;1.31;64.78
61359;BME280;47228;46.762;23.598;2023-04-06T00:09:32;96897.39;;;1.28;64.74
61359;BME280;47228;46.762;23.598;2023-04-06T00:12:00;96900.30;;;1.25;64.91
61359;BME280;47228;46.762;23.598;2023-04-06T00:14:28;96890.92;;;1.21;65.01
61359;BME280;47228;46.762;23.598;2023-04-06T00:16:56;96891.83;;;1.17;65.26
61359;BME280;47228;46.762;23.598;2023-04-06T00:19:25;96885.80;;;1.14;65.13
61359;BME280;47228;46.762;23.598;2023-04-06T00:21:54;96887.66;;;1.13;65.03
61359;BME280;47228;46.762;23.598;2023-04-06T00:24:22;96882.64;;;1.11;65.05
61359;BME280;47228;46.762;23.598;2023-04-06T00:26:50;96881.77;;;1.09;65.17
61359;BME280;47228;46.762;23.598;2023-04-06T00:29:17;96877.30;;;1.09;65.51
61359;BME280;47228;46.762;23.598;2023-04-06T00:31:45;96877.61;;;1.08;65.38
61359;BME280;47228;46.762;23.598;2023-04-06T00:34:14;96876.63;;;1.05;65.37
61359;BME280;47228;46.762;23.598;2023-04-06T00:36:43;96874.45;;;1.04;65.49
61359;BME280;47228;46.762;23.598;2023-04-06T00:39:11;96872.20;;;1.02;65.61
61359;BME280;47228;46.762;23.598;2023-04-06T00:41:46;96870.61;;;1.01;65.22
61359;BME280;47228;46.762;23.598;2023-04-06T00:44:14;96868.05;;;0.97;65.12
61359;BME280;47228;46.762;23.598;2023-04-06T00:46:43;96868.87;;;0.94;65.17
61359;BME280;47228;46.762;23.598;2023-04-06T00:49:12;96866.18;;;0.93;65.16
61359;BME280;47228;46.762;23.598;2023-04-06T00:51:40;96867.13;;;0.92;65.03
61359;BME280;47228;46.762;23.598;2023-04-06T00:54:08;96862.63;;;0.89;64.99
61359;BME280;47228;46.762;23.598;2023-04-06T00:56:36;96861.67;;;0.88;65.38
61359;BME280;47228;46.762;23.598;2023-04-06T00:59:05;96860.05;;;0.89;65.42
61359;BME280;47228;46.762;23.598;2023-04-06T01:01:34;96858.21;;;0.88;65.09
61359;BME280;47228;46.762;23.598;2023-04-06T01:04:02;96858.67;;;0.85;65.37
61359;BME280;47228;46.762;23.598;2023-04-06T01:06:30;96860.31;;;0.83;65.27
61359;BME280;47228;46.762;23.598;2023-04-06T01:08:58;96855.36;;;0.82;65.27
61359;BME280;47228;46.762;23.598;2023-04-06T01:11:26;96851.43;;;0.80;65.17
61359;BME280;47228;46.762;23.598;2023-04-06T01:13:55;96852.74;;;0.77;65.05
61359;BME280;47228;46.762;23.598;2023-04-06T01:16:23;96850.16;;;0.73;64.88
61359;BME280;47228;46.762;23.598;2023-04-06T01:18:52;96848.93;;;0.68;64.82
61359;BME280;47228;46.762;23.598;2023-04-06T01:21:20;96851.88;;;0.64;64.69
61359;BME280;47228;46.762;23.598;2023-04-06T01:23:48;96844.70;;;0.61;64.92
61359;BME280;47228;46.762;23.598;2023-04-06T01:26:16;96843.52;;;0.60;64.89
61359;BME280;47228;46.762;23.598;2023-04-06T01:28:44;96843.90;;;0.58;64.29
61359;BME280;47228;46.762;23.598;2023-04-06T01:31:12;96849.09;;;0.57;64.04
61359;BME280;47228;46.762;23.598;2023-04-06T01:33:40;96843.88;;;0.55;63.96
61359;BME280;47228;46.762;23.598;2023-04-06T01:36:08;96838.77;;;0.54;64.08
61359;BME280;47228;46.762;23.598;2023-04-06T01:38:36;96832.48;;;0.52;64.21
61359;BME280;47228;46.762;23.598;2023-04-06T01:41:04;96830.19;;;0.51;64.04
61359;BME280;47228;46.762;23.598;2023-04-06T01:43:33;96824.81;;;0.49;63.72
61359;BME280;47228;46.762;23.598;2023-04-06T01:46:01;96822.84;;;0.46;63.28
61359;BME280;47228;46.762;23.598;2023-04-06T01:48:29;96821.95;;;0.43;62.96
61359;BME280;47228;46.762;23.598;2023-04-06T01:50:57;96813.90;;;0.39;63.68
61359;BME280;47228;46.762;23.598;2023-04-06T01:53:25;96811.16;;;0.39;63.86
61359;BME280;47228;46.762;23.598;2023-04-06T01:55:53;96809.05;;;0.39;64.01
61359;BME280;47228;46.762;23.598;2023-04-06T01:58:21;96806.73;;;0.40;64.13
61359;BME280;47228;46.762;23.598;2023-04-06T02:00:49;96804.74;;;0.41;64.08
61359;BME280;47228;46.762;23.598;2023-04-06T02:03:17;96799.14;;;0.39;63.65
61359;BME280;47228;46.762;23.598;2023-04-06T02:05:46;96795.46;;;0.35;63.30
61359;BME280;47228;46.762;23.598;2023-04-06T02:08:14;96796.75;;;0.33;63.52
61359;BME280;47228;46.762;23.598;2023-04-06T02:10:42;96791.67;;;0.31;63.77
61359;BME280;47228;46.762;23.598;2023-04-06T02:13:10;96787.06;;;0.31;63.83
61359;BME280;47228;46.762;23.598;2023-04-06T02:15:38;96784.17;;;0.30;63.26
61359;BME280;47228;46.762;23.598;2023-04-06T02:18:06;96782.55;;;0.27;63.32
61359;BME280;47228;46.762;23.598;2023-04-06T02:20:34;96777.93;;;0.24;63.50
61359;BME280;47228;46.762;23.598;2023-04-06T02:23:02;96774.75;;;0.21;63.52
61359;BME280;47228;46.762;23.598;2023-04-06T02:25:30;96774.67;;;0.20;63.11
61359;BME280;47228;46.762;23.598;2023-04-06T02:27:58;96773.08;;;0.17;63.22
61359;BME280;47228;46.762;23.598;2023-04-06T02:30:26;96771.04;;;0.15;63.29
61359;BME280;47228;46.762;23.598;2023-04-06T02:32:54;96770.04;;;0.12;63.38
61359;BME280;47228;46.762;23.598;2023-04-06T02:35:22;96767.08;;;0.10;63.46
61359;BME280;47228;46.762;23.598;2023-04-06T02:37:50;96762.52;;;0.09;63.72
61359;BME280;47228;46.762;23.598;2023-04-06T02:40:18;96763.19;;;0.07;64.07
61359;BME280;47228;46.762;23.598;2023-04-06T02:42:46;96765.02;;;0.08;64.19
61359;BME280;47228;46.762;23.598;2023-04-06T02:45:14;96763.49;;;0.09;64.03
61359;BME280;47228;46.762;23.598;2023-04-06T02:47:43;96762.91;;;0.10;64.26
61359;BME280;47228;46.762;23.598;2023-04-06T02:50:11;96761.83;;;0.12;64.39
61359;BME280;47228;46.762;23.598;2023-04-06T02:52:39;96762.74;;;0.14;64.42
61359;BME280;47228;46.762;23.598;2023-04-06T02:55:07;96768.20;;;0.15;64.58
61359;BME280;47228;46.762;23.598;2023-04-06T02:57:35;96766.96;;;0.15;64.85
61359;BME280;47228;46.762;23.598;2023-04-06T03:00:03;96765.37;;;0.16;64.88
61359;BME280;47228;46.762;23.598;2023-04-06T03:02:32;96768.40;;;0.15;64.75
61359;BME280;47228;46.762;23.598;2023-04-06T03:05:00;96764.92;;;0.13;64.55
61359;BME280;47228;46.762;23.598;2023-04-06T03:07:28;96765.67;;;0.09;64.53
61359;BME280;47228;46.762;23.598;2023-04-06T03:09:56;96764.52;;;0.06;64.68
61359;BME280;47228;46.762;23.598;2023-04-06T03:12:24;96762.06;;;0.05;64.70
61359;BME280;47228;46.762;23.598;2023-04-06T03:14:52;96761.20;;;0.01;64.49
61359;BME280;47228;46.762;23.598;2023-04-06T03:17:20;96758.31;;;-0.02;64.64
61359;BME280;47228;46.762;23.598;2023-04-06T03:19:48;96758.42;;;-0.05;64.60
61359;BME280;47228;46.762;23.598;2023-04-06T03:22:18;96755.96;;;-0.06;64.24
61359;BME280;47228;46.762;23.598;2023-04-06T03:24:45;96759.25;;;-0.08;64.33
61359;BME280;47228;46.762;23.598;2023-04-06T03:27:14;96760.51;;;-0.10;64.32
61359;BME280;47228;46.762;23.598;2023-04-06T03:29:42;96761.63;;;-0.11;64.46
61359;BME280;47228;46.762;23.598;2023-04-06T03:32:10;96761.18;;;-0.10;64.62
61359;BME280;47228;46.762;23.598;2023-04-06T03:34:39;96757.83;;;-0.09;64.36
61359;BME280;47228;46.762;23.598;2023-04-06T03:37:07;96758.86;;;-0.11;64.28
61359;BME280;47228;46.762;23.598;2023-04-06T03:39:37;96753.40;;;-0.12;64.74
61359;BME280;47228;46.762;23.598;2023-04-06T03:42:06;96756.02;;;-0.12;64.63
61359;BME280;47228;46.762;23.598;2023-04-06T03:44:34;96757.87;;;-0.15;64.41
61359;BME280;47228;46.762;23.598;2023-04-06T03:47:02;96751.79;;;-0.17;64.54
61359;BME280;47228;46.762;23.598;2023-04-06T03:49:30;96751.89;;;-0.20;64.51
61359;BME280;47228;46.762;23.598;2023-04-06T03:51:58;96754.82;;;-0.21;64.69
61359;BME280;47228;46.762;23.598;2023-04-06T03:54:26;96753.08;;;-0.23;64.45
61359;BME280;47228;46.762;23.598;2023-04-06T03:56:54;96750.73;;;-0.26;64.49
61359;BME280;47228;46.762;23.598;2023-04-06T03:59:23;96748.08;;;-0.28;64.59
61359;BME280;47228;46.762;23.598;2023-04-06T04:01:51;96754.61;;;-0.27;64.66
61359;BME280;47228;46.762;23.598;2023-04-06T04:04:19;96751.59;;;-0.26;64.81
61359;BME280;47228;46.762;23.598;2023-04-06T04:06:47;96749.96;;;-0.25;64.90
61359;BME280;47228;46.762;23.598;2023-04-06T04:09:15;96748.67;;;-0.26;64.52
61359;BME280;47228;46.762;23.598;2023-04-06T04:11:43;96755.40;;;-0.29;64.62
61359;BME280;47228;46.762;23.598;2023-04-06T04:14:11;96754.96;;;-0.32;64.73
61359;BME280;47228;46.762;23.598;2023-04-06T04:16:39;96753.56;;;-0.34;64.90
61359;BME280;47228;46.762;23.598;2023-04-06T04:19:09;96755.20;;;-0.34;65.14
61359;BME280;47228;46.762;23.598;2023-04-06T04:21:46;96756.10;;;-0.33;65.43
61359;BME280;47228;46.762;23.598;2023-04-06T04:24:14;96754.18;;;-0.31;65.43
61359;BME280;47228;46.762;23.598;2023-04-06T04:26:42;96753.23;;;-0.30;65.47
61359;BME280;47228;46.762;23.598;2023-04-06T04:29:10;96751.53;;;-0.27;65.94
61359;BME280;47228;46.762;23.598;2023-04-06T04:31:38;96758.01;;;-0.24;65.78
61359;BME280;47228;46.762;23.598;2023-04-06T04:34:06;96763.76;;;-0.22;65.62
61359;BME280;47228;46.762;23.598;2023-04-06T04:36:34;96762.93;;;-0.22;65.72
61359;BME280;47228;46.762;23.598;2023-04-06T04:39:02;96763.11;;;-0.24;66.08
61359;BME280;47228;46.762;23.598;2023-04-06T04:41:30;96760.52;;;-0.25;66.45
61359;BME280;47228;46.762;23.598;2023-04-06T04:43:58;96765.70;;;-0.24;66.92
61359;BME280;47228;46.762;23.598;2023-04-06T04:46:26;96769.05;;;-0.26;67.10
61359;BME280;47228;46.762;23.598;2023-04-06T04:48:55;96765.48;;;-0.27;67.58
61359;BME280;47228;46.762;23.598;2023-04-06T04:51:23;96764.05;;;-0.27;67.83
61359;BME280;47228;46.762;23.598;2023-04-06T04:53:52;96765.27;;;-0.29;67.92
61359;BME280;47228;46.762;23.598;2023-04-06T04:56:20;96765.70;;;-0.28;68.63
61359;BME280;47228;46.762;23.598;2023-04-06T04:58:48;96769.61;;;-0.27;68.79
61359;BME280;47228;46.762;23.598;2023-04-06T05:01:16;96773.14;;;-0.31;68.84
61359;BME280;47228;46.762;23.598;2023-04-06T05:03:44;96771.44;;;-0.39;68.91
61359;BME280;47228;46.762;23.598;2023-04-06T05:06:13;96772.63;;;-0.48;69.21
61359;BME280;47228;46.762;23.598;2023-04-06T05:08:41;96775.38;;;-0.58;69.88
61359;BME280;47228;46.762;23.598;2023-04-06T05:11:10;96772.14;;;-0.65;70.35
61359;BME280;47228;46.762;23.598;2023-04-06T05:13:38;96770.40;;;-0.67;71.38
61359;BME280;47228;46.762;23.598;2023-04-06T05:16:06;96769.36;;;-0.67;71.60
61359;BME280;47228;46.762;23.598;2023-04-06T05:18:34;96772.73;;;-0.68;71.59
61359;BME280;47228;46.762;23.598;2023-04-06T05:21:02;96778.91;;;-0.72;72.02
61359;BME280;47228;46.762;23.598;2023-04-06T05:23:30;96780.95;;;-0.77;72.23
61359;BME280;47228;46.762;23.598;2023-04-06T05:25:58;96780.11;;;-0.83;72.39
61359;BME280;47228;46.762;23.598;2023-04-06T05:28:26;96779.86;;;-0.89;72.76
61359;BME280;47228;46.762;23.598;2023-04-06T05:30:55;96781.98;;;-0.98;72.86
61359;BME280;47228;46.762;23.598;2023-04-06T05:33:25;96780.59;;;-1.05;73.21
61359;BME280;47228;46.762;23.598;2023-04-06T05:35:54;96783.19;;;-1.10;73.92
61359;BME280;47228;46.762;23.598;2023-04-06T05:38:22;96784.50;;;-1.15;74.12
61359;BME280;47228;46.762;23.598;2023-04-06T05:40:51;96786.90;;;-1.21;74.58
61359;BME280;47228;46.762;23.598;2023-04-06T05:43:20;96784.43;;;-1.28;74.92
61359;BME280;47228;46.762;23.598;2023-04-06T05:45:49;96784.97;;;-1.36;75.27
61359;BME280;47228;46.762;23.598;2023-04-06T05:48:17;96785.34;;;-1.44;75.95
61359;BME280;47228;46.762;23.598;2023-04-06T05:50:49;96780.83;;;-1.51;75.88
61359;BME280;47228;46.762;23.598;2023-04-06T05:53:18;96783.19;;;-1.55;76.49
61359;BME280;47228;46.762;23.598;2023-04-06T05:55:46;96784.67;;;-1.56;76.96
61359;BME280;47228;46.762;23.598;2023-04-06T05:58:14;96778.62;;;-1.58;77.44
61359;BME280;47228;46.762;23.598;2023-04-06T06:00:43;96774.63;;;-1.61;77.68
61359;BME280;47228;46.762;23.598;2023-04-06T06:03:13;96773.47;;;-1.60;78.21
61359;BME280;47228;46.762;23.598;2023-04-06T06:05:43;96771.85;;;-1.60;78.28
61359;BME280;47228;46.762;23.598;2023-04-06T06:08:11;96767.95;;;-1.59;78.39
61359;BME280;47228;46.762;23.598;2023-04-06T06:10:39;96764.64;;;-1.60;78.33
61359;BME280;47228;46.762;23.598;2023-04-06T06:13:08;96764.92;;;-1.62;78.71
61359;BME280;47228;46.762;23.598;2023-04-06T06:15:36;96760.75;;;-1.62;79.02
61359;BME280;47228;46.762;23.598;2023-04-06T06:18:04;96758.23;;;-1.64;79.44
61359;BME280;47228;46.762;23.598;2023-04-06T06:20:32;96757.48;;;-1.68;79.55
61359;BME280;47228;46.762;23.598;2023-04-06T06:23:00;96758.52;;;-1.68;79.48
61359;BME280;47228;46.762;23.598;2023-04-06T06:25:28;96760.77;;;-1.65;79.75
61359;BME280;47228;46.762;23.598;2023-04-06T06:27:58;96759.98;;;-1.65;80.24
61359;BME280;47228;46.762;23.598;2023-04-06T06:30:27;96754.27;;;-1.65;80.13
61359;BME280;47228;46.762;23.598;2023-04-06T06:32:55;96754.23;;;-1.62;80.15
61359;BME280;47228;46.762;23.598;2023-04-06T06:35:23;96751.86;;;-1.61;80.18
61359;BME280;47228;46.762;23.598;2023-04-06T06:37:51;96748.27;;;-1.62;79.92
61359;BME280;47228;46.762;23.598;2023-04-06T06:40:19;96746.25;;;-1.61;79.97
61359;BME280;47228;46.762;23.598;2023-04-06T06:42:50;96743.52;;;-1.61;80.14
61359;BME280;47228;46.762;23.598;2023-04-06T06:45:19;96749.61;;;-1.65;80.39
61359;BME280;47228;46.762;23.598;2023-04-06T06:47:48;96750.89;;;-1.64;80.64
61359;BME280;47228;46.762;23.598;2023-04-06T06:50:16;96753.73;;;-1.61;80.64
61359;BME280;47228;46.762;23.598;2023-04-06T06:52:44;96750.80;;;-1.55;80.70
61359;BME280;47228;46.762;23.598;2023-04-06T06:55:12;96751.77;;;-1.51;80.98
61359;BME280;47228;46.762;23.598;2023-04-06T06:57:40;96749.80;;;-1.48;80.81
61359;BME280;47228;46.762;23.598;2023-04-06T07:00:10;96752.70;;;-1.46;80.81
61359;BME280;47228;46.762;23.598;2023-04-06T07:02:40;96753.46;;;-1.42;80.75
61359;BME280;47228;46.762;23.598;2023-04-06T07:05:08;96756.89;;;-1.40;80.81
61359;BME280;47228;46.762;23.598;2023-04-06T07:07:54;96752.89;;;-1.38;80.55
61359;BME280;47228;46.762;23.598;2023-04-06T07:10:22;96752.45;;;-1.37;80.42
61359;BME280;47228;46.762;23.598;2023-04-06T07:12:51;96759.17;;;-1.35;80.68
61359;BME280;47228;46.762;23.598;2023-04-06T07:15:19;96758.91;;;-1.30;80.79
61359;BME280;47228;46.762;23.598;2023-04-06T07:17:48;96758.80;;;-1.27;80.53
61359;BME280;47228;46.762;23.598;2023-04-06T07:20:16;96756.29;;;-1.26;80.30
61359;BME280;47228;46.762;23.598;2023-04-06T07:22:44;96757.60;;;-1.25;80.30
61359;BME280;47228;46.762;23.598;2023-04-06T07:25:12;96759.58;;;-1.22;80.33
61359;BME280;47228;46.762;23.598;2023-04-06T07:27:40;96759.23;;;-1.16;80.71
61359;BME280;47228;46.762;23.598;2023-04-06T07:30:09;96759.48;;;-1.13;81.04
61359;BME280;47228;46.762;23.598;2023-04-06T07:32:37;96758.31;;;-1.12;82.17
61359;BME280;47228;46.762;23.598;2023-04-06T07:35:05;96758.80;;;-1.08;82.99
61359;BME280;47228;46.762;23.598;2023-04-06T07:37:33;96757.69;;;-1.02;82.90
61359;BME280;47228;46.762;23.598;2023-04-06T07:40:01;96756.52;;;-0.97;82.40
61359;BME280;47228;46.762;23.598;2023-04-06T07:42:29;96760.32;;;-0.96;81.64
61359;BME280;47228;46.762;23.598;2023-04-06T07:44:58;96760.44;;;-0.96;81.48
61359;BME280;47228;46.762;23.598;2023-04-06T07:47:26;96757.46;;;-0.94;81.61
61359;BME280;47228;46.762;23.598;2023-04-06T07:49:55;96761.39;;;-0.89;81.81
61359;BME280;47228;46.762;23.598;2023-04-06T07:52:26;96760.42;;;-0.84;81.58
61359;BME280;47228;46.762;23.598;2023-04-06T07:54:54;96760.54;;;-0.80;81.49
61359;BME280;47228;46.762;23.598;2023-04-06T07:57:22;96761.09;;;-0.76;81.07
61359;BME280;47228;46.762;23.598;2023-04-06T07:59:50;96762.24;;;-0.74;81.02
61359;BME280;47228;46.762;23.598;2023-04-06T08:02:19;96758.98;;;-0.73;80.97
61359;BME280;47228;46.762;23.598;2023-04-06T08:04:47;96754.48;;;-0.69;81.13
61359;BME280;47228;46.762;23.598;2023-04-06T08:07:15;96754.65;;;-0.67;80.58
61359;BME280;47228;46.762;23.598;2023-04-06T08:09:43;96756.91;;;-0.69;80.38
61359;BME280;47228;46.762;23.598;2023-04-06T08:12:11;96755.08;;;-0.70;80.18
61359;BME280;47228;46.762;23.598;2023-04-06T08:14:39;96757.66;;;-0.72;79.81
61359;BME280;47228;46.762;23.598;2023-04-06T08:17:07;96758.10;;;-0.74;79.79
61359;BME280;47228;46.762;23.598;2023-04-06T08:19:35;96754.30;;;-0.79;79.77
61359;BME280;47228;46.762;23.598;2023-04-06T08:22:03;96753.84;;;-0.85;79.60
61359;BME280;47228;46.762;23.598;2023-04-06T08:24:31;96754.73;;;-0.87;80.19
61359;BME280;47228;46.762;23.598;2023-04-06T08:27:00;96754.98;;;-0.84;80.36
61359;BME280;47228;46.762;23.598;2023-04-06T08:29:28;96754.98;;;-0.82;80.20
61359;BME280;47228;46.762;23.598;2023-04-06T08:31:56;96758.45;;;-0.83;80.33
61359;BME280;47228;46.762;23.598;2023-04-06T08:34:24;96759.46;;;-0.83;80.17
61359;BME280;47228;46.762;23.598;2023-04-06T08:36:52;96757.54;;;-0.83;80.23
61359;BME280;47228;46.762;23.598;2023-04-06T08:39:20;96758.41;;;-0.83;80.38
61359;BME280;47228;46.762;23.598;2023-04-06T08:41:53;96758.35;;;-0.81;80.55
61359;BME280;47228;46.762;23.598;2023-04-06T08:44:25;96759.42;;;-0.75;81.00
61359;BME280;47228;46.762;23.598;2023-04-06T08:46:54;96756.70;;;-0.71;81.01
61359;BME280;47228;46.762;23.598;2023-04-06T08:49:23;96755.66;;;-0.65;81.04
61359;BME280;47228;46.762;23.598;2023-04-06T08:51:51;96757.67;;;-0.59;80.30
61359;BME280;47228;46.762;23.598;2023-04-06T08:54:19;96755.52;;;-0.56;79.81
61359;BME280;47228;46.762;23.598;2023-04-06T08:56:47;96756.10;;;-0.53;79.88
61359;BME280;47228;46.762;23.598;2023-04-06T08:59:16;96754.69;;;-0.49;79.96
61359;BME280;47228;46.762;23.598;2023-04-06T09:01:45;96753.89;;;-0.45;79.79
61359;BME280;47228;46.762;23.598;2023-04-06T09:04:15;96751.02;;;-0.42;79.10
61359;BME280;47228;46.762;23.598;2023-04-06T09:06:43;96750.45;;;-0.43;78.72
61359;BME280;47228;46.762;23.598;2023-04-06T09:09:12;96755.52;;;-0.45;78.97
61359;BME280;47228;46.762;23.598;2023-04-06T09:11:48;96754.37;;;-0.40;79.48
61359;BME280;47228;46.762;23.598;2023-04-06T09:14:16;96756.84;;;-0.37;79.50
61359;BME280;47228;46.762;23.598;2023-04-06T09:16:45;96758.45;;;-0.34;79.70
61359;BME280;47228;46.762;23.598;2023-04-06T09:19:13;96759.84;;;-0.34;79.23
61359;BME280;47228;46.762;23.598;2023-04-06T09:21:41;96755.14;;;-0.39;79.25
61359;BME280;47228;46.762;23.598;2023-04-06T09:24:09;96756.33;;;-0.41;79.41
61359;BME280;47228;46.762;23.598;2023-04-06T09:26:45;96756.66;;;-0.39;79.93
61359;BME280;47228;46.762;23.598;2023-04-06T09:29:26;96753.42;;;-0.32;80.14
61359;BME280;47228;46.762;23.598;2023-04-06T09:32:05;96753.54;;;-0.23;80.20
61359;BME280;47228;46.762;23.598;2023-04-06T09:34:34;96753.55;;;-0.10;80.39
61359;BME280;47228;46.762;23.598;2023-04-06T09:37:15;96752.94;;;-0.04;78.70
61359;BME280;47228;46.762;23.598;2023-04-06T09:39:43;96758.45;;;-0.05;77.99
61359;BME280;47228;46.762;23.598;2023-04-06T09:42:26;96757.98;;;-0.05;78.05
61359;BME280;47228;46.762;23.598;2023-04-06T09:44:54;96756.53;;;-0.01;78.64
61359;BME280;47228;46.762;23.598;2023-04-06T09:47:22;96752.18;;;-0.01;77.78
61359;BME280;47228;46.762;23.598;2023-04-06T09:49:58;96753.99;;;-0.07;77.57
61359;BME280;47228;46.762;23.598;2023-04-06T09:52:32;96754.52;;;-0.09;77.93
61359;BME280;47228;46.762;23.598;2023-04-06T09:55:02;96751.27;;;-0.10;78.16
61359;BME280;47228;46.762;23.598;2023-04-06T09:57:42;96747.53;;;-0.07;78.57
61359;BME280;47228;46.762;23.598;2023-04-06T10:00:16;96748.77;;;-0.00;78.88
61359;BME280;47228;46.762;23.598;2023-04-06T10:05:46;96749.35;;;0.05;78.81
61359;BME280;47228;46.762;23.598;2023-04-06T10:08:19;96747.05;;;0.09;78.99
61359;BME280;47228;46.762;23.598;2023-04-06T10:10:50;96746.16;;;0.09;78.45
61359;BME280;47228;46.762;23.598;2023-04-06T10:13:18;96744.57;;;0.09;78.81
61359;BME280;47228;46.762;23.598;2023-04-06T10:15:47;96739.48;;;0.15;79.22
61359;BME280;47228;46.762;23.598;2023-04-06T10:18:16;96738.12;;;0.22;78.29
61359;BME280;47228;46.762;23.598;2023-04-06T10:21:05;96735.77;;;0.28;78.59
61359;BME280;47228;46.762;23.598;2023-04-06T10:23:45;96735.97;;;0.38;78.13
61359;BME280;47228;46.762;23.598;2023-04-06T10:26:16;96733.54;;;0.47;77.67
61359;BME280;47228;46.762;23.598;2023-04-06T10:28:46;96734.19;;;0.53;77.35
61359;BME280;47228;46.762;23.598;2023-04-06T10:31:14;96733.61;;;0.60;77.94
61359;BME280;47228;46.762;23.598;2023-04-06T10:33:53;96735.02;;;0.67;76.82
61359;BME280;47228;46.762;23.598;2023-04-06T10:36:25;96732.40;;;0.67;76.06
61359;BME280;47228;46.762;23.598;2023-04-06T10:38:58;96733.48;;;0.65;76.18
61359;BME280;47228;46.762;23.598;2023-04-06T10:41:34;96735.70;;;0.66;76.19
61359;BME280;47228;46.762;23.598;2023-04-06T10:44:02;96738.95;;;0.66;76.80
61359;BME280;47228;46.762;23.598;2023-04-06T10:46:32;96736.21;;;0.64;76.34
61359;BME280;47228;46.762;23.598;2023-04-06T10:49:10;96736.05;;;0.60;76.45
61359;BME280;47228;46.762;23.598;2023-04-06T10:51:41;96737.53;;;0.62;77.23
61359;BME280;47228;46.762;23.598;2023-04-06T10:54:11;96739.89;;;0.67;77.05
61359;BME280;47228;46.762;23.598;2023-04-06T10:56:39;96740.45;;;0.69;76.04
61359;BME280;47228;46.762;23.598;2023-04-06T10:59:07;96738.55;;;0.61;75.28
61359;BME280;47228;46.762;23.598;2023-04-06T11:01:35;96734.52;;;0.53;75.80
61359;BME280;47228;46.762;23.598;2023-04-06T11:04:03;96738.97;;;0.54;76.37
61359;BME280;47228;46.762;23.598;2023-04-06T11:06:31;96740.95;;;0.56;76.96
61359;BME280;47228;46.762;23.598;2023-04-06T11:09:00;96743.08;;;0.58;76.88
61359;BME280;47228;46.762;23.598;2023-04-06T11:11:28;96743.16;;;0.55;76.71
61359;BME280;47228;46.762;23.598;2023-04-06T11:14:00;96738.25;;;0.54;76.45
61359;BME280;47228;46.762;23.598;2023-04-06T11:16:32;96741.67;;;0.53;76.98
61359;BME280;47228;46.762;23.598;2023-04-06T11:19:02;96739.08;;;0.58;77.49
61359;BME280;47228;46.762;23.598;2023-04-06T11:26:41;96739.23;;;0.58;76.12
61359;BME280;47228;46.762;23.598;2023-04-06T11:29:12;96745.80;;;0.50;76.53
61359;BME280;47228;46.762;23.598;2023-04-06T11:31:46;96745.27;;;0.47;76.51
61359;BME280;47228;46.762;23.598;2023-04-06T11:34:19;96743.05;;;0.43;76.25
61359;BME280;47228;46.762;23.598;2023-04-06T11:36:54;96743.00;;;0.39;76.24
61359;BME280;47228;46.762;23.598;2023-04-06T11:39:23;96743.14;;;0.36;76.22
61359;BME280;47228;46.762;23.598;2023-04-06T11:41:53;96741.50;;;0.30;76.24
61359;BME280;47228;46.762;23.598;2023-04-06T11:44:38;96738.36;;;0.28;77.10
61359;BME280;47228;46.762;23.598;2023-04-06T11:47:09;96744.08;;;0.34;78.15
61359;BME280;47228;46.762;23.598;2023-04-06T11:49:39;96744.66;;;0.40;77.85
61359;BME280;47228;46.762;23.598;2023-04-06T11:52:24;96746.27;;;0.40;77.71
61359;BME280;47228;46.762;23.598;2023-04-06T11:54:54;96747.89;;;0.34;77.20
61359;BME280;47228;46.762;23.598;2023-04-06T11:57:22;96748.71;;;0.28;77.73
61359;BME280;47228;46.762;23.598;2023-04-06T11:59:53;96751.02;;;0.23;77.74
61359;BME280;47228;46.762;23.598;2023-04-06T12:02:21;96753.98;;;0.16;76.89
61359;BME280;47228;46.762;23.598;2023-04-06T12:04:49;96753.95;;;0.09;77.02
61359;BME280;47228;46.762;23.598;2023-04-06T12:07:18;96753.00;;;0.08;78.29
61359;BME280;47228;46.762;23.598;2023-04-06T12:09:46;96749.08;;;0.15;79.10
61359;BME280;47228;46.762;23.598;2023-04-06T12:12:14;96746.41;;;0.19;78.51
61359;BME280;47228;46.762;23.598;2023-04-06T12:14:42;96745.39;;;0.20;78.59
61359;BME280;47228;46.762;23.598;2023-04-06T12:17:10;96746.73;;;0.24;78.59
61359;BME280;47228;46.762;23.598;2023-04-06T12:19:38;96749.56;;;0.28;78.43
61359;BME280;47228;46.762;23.598;2023-04-06T12:22:06;96749.41;;;0.31;78.79
61359;BME280;47228;46.762;23.598;2023-04-06T12:24:35;96751.77;;;0.39;79.21
61359;BME280;47228;46.762;23.598;2023-04-06T12:27:03;96751.91;;;0.44;79.09
61359;BME280;47228;46.762;23.598;2023-04-06T12:29:38;96752.70;;;0.50;78.73
61359;BME280;47228;46.762;23.598;2023-04-06T12:32:06;96757.45;;;0.57;78.74
61359;BME280;47228;46.762;23.598;2023-04-06T12:34:34;96759.05;;;0.63;78.50
61359;BME280;47228;46.762;23.598;2023-04-06T12:37:02;96760.00;;;0.70;78.08
61359;BME280;47228;46.762;23.598;2023-04-06T12:39:30;96759.71;;;0.70;77.05
61359;BME280;47228;46.762;23.598;2023-04-06T12:41:58;96757.70;;;0.67;76.99
61359;BME280;47228;46.762;23.598;2023-04-06T12:44:26;96764.03;;;0.61;76.58
61359;BME280;47228;46.762;23.598;2023-04-06T12:46:54;96767.33;;;0.56;76.78
61359;BME280;47228;46.762;23.598;2023-04-06T12:49:23;96768.64;;;0.50;77.04
61359;BME280;47228;46.762;23.598;2023-04-06T12:51:51;96770.40;;;0.44;77.34
61359;BME280;47228;46.762;23.598;2023-04-06T12:54:19;96767.29;;;0.42;77.86
61359;BME280;47228;46.762;23.598;2023-04-06T12:56:47;96768.19;;;0.36;77.48
61359;BME280;47228;46.762;23.598;2023-04-06T12:59:15;96766.54;;;0.34;78.26
61359;BME280;47228;46.762;23.598;2023-04-06T13:01:44;96765.86;;;0.30;78.04
61359;BME280;47228;46.762;23.598;2023-04-06T13:04:13;96761.80;;;0.23;77.74
61359;BME280;47228;46.762;23.598;2023-04-06T13:06:42;96762.64;;;0.18;77.88
61359;BME280;47228;46.762;23.598;2023-04-06T13:09:09;96766.98;;;0.20;78.59
61359;BME280;47228;46.762;23.598;2023-04-06T13:11:37;96761.34;;;0.23;78.59
61359;BME280;47228;46.762;23.598;2023-04-06T13:14:07;96760.62;;;0.27;78.86